Hauptseite
METAR-TAF:

METAR-TAF

Flughäfen :

K13-a, Niederlande

Bohrplattform

Breite: 53-13-04N, Länge: 3-13-13E, Höhe: 31 m

Beobachtung

Neuester Wetterbericht von vor 32 Minuten, um 00:55 UTC
Wind 24 kt aus Ost/Südost
Temperatur 1°C
Luftfeuchtigkeit 59%
Luftdruck 1030 hPa

METAR: EHJR 250055Z AUTO 11024KT //// // ///////// 01/M06 Q1030 RE// W06/H20

Zeit: 02:27 (01:27 UTC)


TAF: fehlend

Wetterbeobachtungen und Prognosen von mehr als 4000 Flughäfen (METAR und TAF Bericht).

Die verfügbaren Stationen werden durch gelbe und rote Markierungen auf der Karte dargestellt.

Führen Sie die Maus auf sie, um den Namen der Station zu sehen.

Darauf klicken, um die Beobachtung von Wetterbeobachtungen und Prognosen zu sehen.

Um die Karte zu ändern : klicken Sie auf den grünen Tasten mit einem schwarzen Kreuz Zum Vergrößern, auf den grünen Button mit einem Gedankenstrich zu verkleinern, oder auf die grünen Pfeile für benachbarte Karten.


METAR-TAF: